Terminal Aerodrome Forecast
Issued by NWS

Home | Current Version | Previous Version | Text Only | Print | Product List | Glossary On
Versions: 1 2 3 4 5 6 7 8 9 10 11 12 13 14 15 16 17 18 19
000
FTUS43 KBIS 280527
TAFMOT
TAF
KMOT 280527Z 2806/2906 26007KT P6SM BKN070
     FM281400 27014KT P6SM VCSH BKN070
     FM281800 31022G32KT P6SM VCTS SCT045CB BKN080
     FM290000 32023G32KT P6SM SCT050 BKN060
     FM290200 32015KT P6SM SCT040 BKN060=

USA.gov is the U.S. government's official web portal to all federal, state and local government web resources and services.